createdAt,value
2024-03-26T00:00:27.395Z,51.325794
2024-03-26T00:01:27.399Z,51.325756
2024-03-26T00:02:27.354Z,51.325760
2024-03-26T00:03:27.334Z,51.325768
2024-03-26T00:04:27.331Z,51.325809
2024-03-26T00:05:27.315Z,51.325764
2024-03-26T00:06:27.340Z,51.325787
2024-03-26T00:07:27.294Z,51.325611
2024-03-26T00:08:27.267Z,51.325729
2024-03-26T00:09:27.253Z,51.325741
2024-03-26T00:10:27.230Z,51.325756
2024-03-26T00:11:27.268Z,51.325752
2024-03-26T00:12:27.208Z,51.325821
2024-03-26T00:13:27.177Z,51.325806
2024-03-26T00:14:27.155Z,51.325829
2024-03-26T00:15:27.208Z,51.325851
2024-03-26T00:16:27.131Z,51.325859
2024-03-26T00:17:27.152Z,51.325798
2024-03-26T00:18:27.120Z,51.325817
2024-03-26T00:19:27.087Z,51.325794
2024-03-26T00:20:27.087Z,51.325790
2024-03-26T00:21:27.058Z,51.325783
2024-03-26T00:22:27.082Z,51.325756
2024-03-26T00:23:27.034Z,51.325733
2024-03-26T00:24:26.995Z,51.325748
2024-03-26T00:25:26.982Z,51.325787
2024-03-26T00:26:26.956Z,51.325771
2024-03-26T00:27:27.002Z,51.325748
2024-03-26T00:28:26.947Z,51.325729
2024-03-26T00:29:26.946Z,51.325722
2024-03-26T00:30:26.904Z,51.325706
2024-03-26T00:31:26.881Z,51.325718
2024-03-26T00:32:26.881Z,51.325737
2024-03-26T00:33:26.862Z,51.325752
2024-03-26T00:34:26.837Z,51.325741
2024-03-26T00:35:26.826Z,51.325737
2024-03-26T00:36:26.788Z,51.325752
2024-03-26T00:37:26.788Z,51.325733
2024-03-26T00:38:26.769Z,51.325741
2024-03-26T00:39:26.765Z,51.325733
2024-03-26T00:40:26.748Z,51.325729
2024-03-26T00:41:26.717Z,51.325710
2024-03-26T00:42:26.681Z,51.325729
2024-03-26T00:43:26.683Z,51.325737
2024-03-26T00:44:26.650Z,51.325756
2024-03-26T00:45:26.649Z,51.325691
2024-03-26T00:46:26.625Z,51.325775
2024-03-26T00:47:26.615Z,51.325729
2024-03-26T00:48:26.627Z,51.325695
2024-03-26T00:49:26.582Z,51.325737
2024-03-26T00:50:26.559Z,51.325729
2024-03-26T00:51:26.542Z,51.325722
2024-03-26T00:52:26.528Z,51.325695
2024-03-26T00:53:26.515Z,51.325737
2024-03-26T00:54:27.636Z,51.325729
2024-03-26T00:55:27.472Z,51.325760
2024-03-26T00:56:26.500Z,51.325752
2024-03-26T00:57:26.438Z,51.325729
2024-03-26T00:58:26.439Z,51.325737
2024-03-26T00:59:26.415Z,51.325714
2024-03-26T01:00:26.380Z,51.325699
2024-03-26T01:01:26.445Z,51.325691
2024-03-26T01:02:26.432Z,51.325703
2024-03-26T01:03:26.429Z,51.325706
2024-03-26T01:04:26.397Z,51.325787
2024-03-26T01:05:26.328Z,51.325798
2024-03-26T01:06:26.308Z,51.325787
2024-03-26T01:07:26.277Z,51.325710
2024-03-26T01:08:26.271Z,51.325764
2024-03-26T01:09:26.283Z,51.325771
2024-03-26T01:10:26.224Z,51.325703
2024-03-26T01:11:26.215Z,51.325695
2024-03-26T01:12:26.193Z,51.325714
2024-03-26T01:13:26.176Z,51.325878
2024-03-26T01:14:26.164Z,51.325878
2024-03-26T01:15:26.162Z,51.325764
2024-03-26T01:16:26.120Z,51.325768
2024-03-26T01:17:26.120Z,51.325790
2024-03-26T01:18:26.109Z,51.325760
2024-03-26T01:19:26.082Z,51.325783
2024-03-26T01:20:26.074Z,51.325726
2024-03-26T01:21:26.042Z,51.325737
2024-03-26T01:22:26.033Z,51.325737
2024-03-26T01:23:26.029Z,51.325764
2024-03-26T01:24:26.009Z,51.325726
2024-03-26T01:25:26.021Z,51.325726
2024-03-26T01:26:25.976Z,51.325722
2024-03-26T01:27:25.944Z,51.325733
2024-03-26T01:28:25.927Z,51.325741
2024-03-26T01:29:25.914Z,51.325821
2024-03-26T01:30:25.948Z,51.325676
2024-03-26T01:31:25.913Z,51.325741
2024-03-26T01:32:25.884Z,51.325756
2024-03-26T01:33:25.855Z,51.325726
2024-03-26T01:34:25.849Z,51.325916
2024-03-26T01:35:25.820Z,51.325790
2024-03-26T01:36:25.802Z,51.325752
2024-03-26T01:37:25.794Z,51.325775
2024-03-26T01:38:25.831Z,51.325733
2024-03-26T01:39:25.772Z,51.325748
2024-03-26T01:40:25.719Z,51.325745
2024-03-26T01:41:25.831Z,51.325771
2024-03-26T01:42:25.698Z,51.325813
2024-03-26T01:43:25.667Z,51.325710
2024-03-26T01:44:25.653Z,51.325691
2024-03-26T01:45:25.630Z,51.325790
2024-03-26T01:46:25.684Z,51.325726
2024-03-26T01:47:25.644Z,51.325703
2024-03-26T01:48:25.585Z,51.325726
2024-03-26T01:49:25.582Z,51.325790
2024-03-26T01:50:25.538Z,51.325737
2024-03-26T01:51:25.526Z,51.325798
2024-03-26T01:52:25.525Z,51.325783
2024-03-26T01:53:25.506Z,51.325722
2024-03-26T01:54:25.478Z,51.325760
2024-03-26T01:55:25.486Z,51.325752
2024-03-26T01:56:25.457Z,51.325794
2024-03-26T01:57:25.458Z,51.325752
2024-03-26T01:58:25.421Z,51.325710
2024-03-26T01:59:25.392Z,51.325665
2024-03-26T02:00:25.382Z,51.325745
2024-03-26T02:01:25.364Z,51.325588
2024-03-26T02:02:25.383Z,51.325584
2024-03-26T02:03:25.344Z,51.325676
2024-03-26T02:04:25.310Z,51.325756
2024-03-26T02:05:25.315Z,51.325729
2024-03-26T02:06:25.291Z,51.325737
2024-03-26T02:07:25.257Z,51.325718
2024-03-26T02:08:25.255Z,51.325714
2024-03-26T02:09:25.234Z,51.325733
2024-03-26T02:10:25.206Z,51.325710
2024-03-26T02:11:25.185Z,51.325706
2024-03-26T02:12:25.188Z,51.325676
2024-03-26T02:13:25.227Z,51.325672
2024-03-26T02:14:25.131Z,51.325676
2024-03-26T02:15:25.123Z,51.325695
2024-03-26T02:16:25.103Z,51.325680
2024-03-26T02:17:25.106Z,51.325695
2024-03-26T02:18:25.126Z,51.325726
2024-03-26T02:19:25.056Z,51.325748
2024-03-26T02:20:25.040Z,51.325760
2024-03-26T02:21:25.020Z,51.325760
2024-03-26T02:22:25.015Z,51.325760
2024-03-26T02:23:25.026Z,51.325764
2024-03-26T02:24:24.966Z,51.325771
2024-03-26T02:25:24.963Z,51.325775
2024-03-26T02:26:24.944Z,51.325760
2024-03-26T02:27:24.913Z,51.325775
2024-03-26T02:28:24.901Z,51.325764
2024-03-26T02:29:24.896Z,51.325775
2024-03-26T02:30:24.866Z,51.325809
2024-03-26T02:31:24.860Z,51.325813
2024-03-26T02:32:24.856Z,51.325798
2024-03-26T02:33:24.815Z,51.325779
2024-03-26T02:34:24.820Z,51.325771
2024-03-26T02:35:24.794Z,51.325771
2024-03-26T02:36:24.766Z,51.325745
2024-03-26T02:37:24.757Z,51.325779
2024-03-26T02:38:24.730Z,51.325771
2024-03-26T02:39:24.759Z,51.325783
2024-03-26T02:40:24.711Z,51.325718
2024-03-26T02:41:24.691Z,51.325733
2024-03-26T02:42:24.667Z,51.325668
2024-03-26T02:43:24.660Z,51.325779
2024-03-26T02:44:24.662Z,51.325768
2024-03-26T02:45:24.619Z,51.325829
2024-03-26T02:46:24.600Z,51.325867
2024-03-26T02:47:24.605Z,51.325779
2024-03-26T02:48:24.558Z,51.325764
2024-03-26T02:49:24.545Z,51.325737
2024-03-26T02:50:24.545Z,51.325748
2024-03-26T02:51:24.506Z,51.325726
2024-03-26T02:52:24.505Z,51.325726
2024-03-26T02:53:24.489Z,51.325745
2024-03-26T02:54:24.472Z,51.325760
2024-03-26T02:55:24.472Z,51.325756
2024-03-26T02:56:24.433Z,51.325733
2024-03-26T02:57:24.414Z,51.325729
2024-03-26T02:58:24.412Z,51.325714
2024-03-26T02:59:24.395Z,51.325779
2024-03-26T03:00:24.406Z,51.325752
2024-03-26T03:01:24.360Z,51.325741
2024-03-26T03:02:24.338Z,51.325737
2024-03-26T03:03:24.303Z,51.325691
2024-03-26T03:04:25.326Z,51.325714
2024-03-26T03:05:24.580Z,51.325726
2024-03-26T03:06:24.258Z,51.325760
2024-03-26T03:07:24.249Z,51.325722
2024-03-26T03:08:24.242Z,51.325714
2024-03-26T03:09:24.222Z,51.325718
2024-03-26T03:10:24.318Z,51.325714
2024-03-26T03:11:24.174Z,51.325771
2024-03-26T03:12:24.180Z,51.325760
2024-03-26T03:13:24.148Z,51.325764
2024-03-26T03:14:24.125Z,51.325748
2024-03-26T03:15:24.108Z,51.325760
2024-03-26T03:16:24.104Z,51.325771
2024-03-26T03:17:24.075Z,51.325771
2024-03-26T03:18:24.072Z,51.325787
2024-03-26T03:19:24.052Z,51.325714
2024-03-26T03:20:24.024Z,51.325752
2024-03-26T03:21:24.051Z,51.325745
2024-03-26T03:22:23.994Z,51.325756
2024-03-26T03:23:23.988Z,51.325768
2024-03-26T03:24:23.963Z,51.325745
2024-03-26T03:25:23.949Z,51.325745
2024-03-26T03:26:25.556Z,51.325752
2024-03-26T03:27:23.914Z,51.325771
2024-03-26T03:28:23.902Z,51.325768
2024-03-26T03:29:23.877Z,51.325760
2024-03-26T03:30:23.859Z,51.325737
2024-03-26T03:31:23.841Z,51.325729
2024-03-26T03:32:23.851Z,51.325745
2024-03-26T03:33:23.811Z,51.325768
2024-03-26T03:34:23.780Z,51.325745
2024-03-26T03:35:23.778Z,51.325745
2024-03-26T03:36:23.779Z,51.325748
2024-03-26T03:37:23.771Z,51.325748
2024-03-26T03:38:23.729Z,51.325764
2024-03-26T03:39:23.712Z,51.325710
2024-03-26T03:40:23.696Z,51.325729
2024-03-26T03:41:23.685Z,51.325752
2024-03-26T03:42:23.711Z,51.325672
2024-03-26T03:43:23.634Z,51.325726
2024-03-26T03:44:23.627Z,51.325737
2024-03-26T03:45:23.638Z,51.325714
2024-03-26T03:46:23.598Z,51.325661
2024-03-26T03:47:23.651Z,51.325722
2024-03-26T03:48:23.557Z,51.325790
2024-03-26T03:49:23.535Z,51.325760
2024-03-26T03:50:23.530Z,51.325714
2024-03-26T03:51:23.511Z,51.325687
2024-03-26T03:52:23.515Z,51.325699
2024-03-26T03:53:23.495Z,51.325710
2024-03-26T03:54:23.462Z,51.325718
2024-03-26T03:55:23.465Z,51.325714
2024-03-26T03:56:23.428Z,51.325745
2024-03-26T03:57:23.406Z,51.325657
2024-03-26T03:58:23.409Z,51.325710
2024-03-26T03:59:23.378Z,51.325779
2024-03-26T04:00:23.360Z,51.325722
2024-03-26T04:01:23.332Z,51.325729
2024-03-26T04:02:23.320Z,51.325710
2024-03-26T04:03:23.344Z,51.325748
2024-03-26T04:04:23.281Z,51.325706
2024-03-26T04:05:23.271Z,51.325729
2024-03-26T04:06:23.250Z,51.325760
2024-03-26T04:07:23.233Z,51.325726
2024-03-26T04:08:23.278Z,51.325798
2024-03-26T04:09:23.219Z,51.325718
2024-03-26T04:10:23.194Z,51.325634
2024-03-26T04:11:23.175Z,51.325741
2024-03-26T04:12:23.148Z,51.325714
2024-03-26T04:13:23.225Z,51.325760
2024-03-26T04:14:26.966Z,51.325710
2024-03-26T04:15:23.118Z,51.325733
2024-03-26T04:16:23.087Z,51.325775
2024-03-26T04:17:23.072Z,51.325745
2024-03-26T04:18:23.058Z,51.325752
2024-03-26T04:19:23.083Z,51.325733
2024-03-26T04:20:23.021Z,51.325745
2024-03-26T04:21:23.013Z,51.325748
2024-03-26T04:22:22.994Z,51.325733
2024-03-26T04:23:22.979Z,51.325691
2024-03-26T04:24:22.999Z,51.325775
2024-03-26T04:25:22.941Z,51.325737
2024-03-26T04:26:22.916Z,51.325729
2024-03-26T04:27:22.909Z,51.325745
2024-03-26T04:28:22.901Z,51.325775
2024-03-26T04:29:22.874Z,51.325768
2024-03-26T04:30:22.904Z,51.325768
2024-03-26T04:31:22.840Z,51.325775
2024-03-26T04:32:22.831Z,51.325756
2024-03-26T04:33:22.803Z,51.325703
2024-03-26T04:34:22.789Z,51.325680
2024-03-26T04:35:22.794Z,51.325699
2024-03-26T04:36:22.761Z,51.325706
2024-03-26T04:37:25.744Z,51.325706
2024-03-26T04:38:22.727Z,51.325718
2024-03-26T04:39:22.695Z,51.325729
2024-03-26T04:40:22.737Z,51.325722
2024-03-26T04:41:22.678Z,51.325733
2024-03-26T04:42:22.653Z,51.325706
2024-03-26T04:43:22.631Z,51.325741
2024-03-26T04:44:22.621Z,51.325756
2024-03-26T04:45:22.698Z,51.325729
2024-03-26T04:46:22.594Z,51.325748
2024-03-26T04:47:22.581Z,51.325741
2024-03-26T04:48:22.550Z,51.325680
2024-03-26T04:49:22.526Z,51.325687
2024-03-26T04:50:22.521Z,51.325748
2024-03-26T04:51:22.628Z,51.325714
2024-03-26T04:52:22.477Z,51.325699
2024-03-26T04:53:22.455Z,51.325745
2024-03-26T04:54:22.451Z,51.325752
2024-03-26T04:55:23.430Z,51.325741
2024-03-26T04:56:22.421Z,51.325726
2024-03-26T04:57:22.442Z,51.325726
2024-03-26T04:58:22.398Z,51.325771
2024-03-26T04:59:22.361Z,51.325764
2024-03-26T05:00:22.343Z,51.325768
2024-03-26T05:01:22.343Z,51.325764
2024-03-26T05:02:22.304Z,51.325703
2024-03-26T05:03:22.288Z,51.325714
2024-03-26T05:04:22.303Z,51.325726
2024-03-26T05:05:22.272Z,51.325752
2024-03-26T05:06:22.288Z,51.325710
2024-03-26T05:07:22.236Z,51.325729
2024-03-26T05:08:22.208Z,51.325760
2024-03-26T05:09:22.191Z,51.325745
2024-03-26T05:10:22.181Z,51.325722
2024-03-26T05:11:22.189Z,51.325726
2024-03-26T05:12:22.176Z,51.325706
2024-03-26T05:13:22.128Z,51.325748
2024-03-26T05:14:22.108Z,51.325745
2024-03-26T05:15:22.093Z,51.325741
2024-03-26T05:16:22.086Z,51.325764
2024-03-26T05:17:22.067Z,51.325748
2024-03-26T05:18:22.061Z,51.325775
2024-03-26T05:19:22.043Z,51.325741
2024-03-26T05:20:22.031Z,51.325764
2024-03-26T05:21:21.990Z,51.325779
2024-03-26T05:22:22.000Z,51.325775
2024-03-26T05:23:21.952Z,51.325752
2024-03-26T05:24:21.944Z,51.325726
2024-03-26T05:25:21.950Z,51.325710
2024-03-26T05:26:21.915Z,51.325748
2024-03-26T05:27:21.940Z,51.325752
2024-03-26T05:28:21.880Z,51.325756
2024-03-26T05:29:21.854Z,51.325741
2024-03-26T05:30:21.859Z,51.325779
2024-03-26T05:31:21.836Z,51.325756
2024-03-26T05:32:21.818Z,51.325752
2024-03-26T05:33:21.833Z,51.325748
2024-03-26T05:34:25.145Z,51.325722
2024-03-26T05:35:22.770Z,51.325733
2024-03-26T05:36:21.762Z,51.325737
2024-03-26T05:37:21.727Z,51.325733
2024-03-26T05:38:21.754Z,51.325741
2024-03-26T05:39:21.691Z,51.325726
2024-03-26T05:40:21.694Z,51.325714
2024-03-26T05:41:21.664Z,51.325695
2024-03-26T05:42:21.646Z,51.325691
2024-03-26T05:43:21.640Z,51.325726
2024-03-26T05:44:55.067Z,51.325691
2024-03-26T05:45:21.596Z,51.325718
2024-03-26T05:46:21.583Z,51.325706
2024-03-26T05:47:21.567Z,51.325733
2024-03-26T05:48:21.569Z,51.325718
2024-03-26T05:49:21.550Z,51.325741
2024-03-26T05:50:21.528Z,51.325760
2024-03-26T05:51:21.493Z,51.325748
2024-03-26T05:52:21.500Z,51.325748
2024-03-26T05:53:21.499Z,51.325741
2024-03-26T05:54:21.495Z,51.325703
2024-03-26T05:55:21.440Z,51.325706
2024-03-26T05:56:21.432Z,51.325748
2024-03-26T05:57:21.439Z,51.325771
2024-03-26T05:58:21.410Z,51.325748
2024-03-26T05:59:21.394Z,51.325764
2024-03-26T06:00:21.392Z,51.325748
2024-03-26T06:01:21.369Z,51.325737
2024-03-26T06:02:21.327Z,51.325760
2024-03-26T06:03:21.306Z,51.325783
2024-03-26T06:04:21.295Z,51.325771
2024-03-26T06:05:21.301Z,51.325748
2024-03-26T06:06:21.254Z,51.325741
2024-03-26T06:07:21.246Z,51.325748
2024-03-26T06:08:21.275Z,51.325710
2024-03-26T06:09:21.225Z,51.325722
2024-03-26T06:10:21.205Z,51.325726
2024-03-26T06:11:21.194Z,51.325733
2024-03-26T06:12:21.167Z,51.325741
2024-03-26T06:13:21.187Z,51.325714
2024-03-26T06:14:21.130Z,51.325733
2024-03-26T06:15:21.170Z,51.325733
2024-03-26T06:16:21.097Z,51.325710
2024-03-26T06:17:21.074Z,51.325726
2024-03-26T06:18:23.717Z,51.325718
2024-03-26T06:19:21.031Z,51.325752
2024-03-26T06:20:21.059Z,51.325779
2024-03-26T06:21:21.017Z,51.325752
2024-03-26T06:22:21.012Z,51.325752
2024-03-26T06:23:21.001Z,51.325760
2024-03-26T06:24:20.987Z,51.325745
2024-03-26T06:25:20.947Z,51.325695
2024-03-26T06:26:20.956Z,51.325710
2024-03-26T06:27:20.924Z,51.325706
2024-03-26T06:28:20.891Z,51.325787
2024-03-26T06:29:20.883Z,51.325649
2024-03-26T06:30:20.863Z,51.325691
2024-03-26T06:31:20.872Z,51.325691
2024-03-26T06:32:20.828Z,51.325752
2024-03-26T06:33:22.909Z,51.325806
2024-03-26T06:34:20.803Z,51.325771
2024-03-26T06:35:20.769Z,51.325741
2024-03-26T06:36:20.775Z,51.325737
2024-03-26T06:37:20.757Z,51.325752
2024-03-26T06:38:20.732Z,51.325771
2024-03-26T06:39:20.724Z,51.325718
2024-03-26T06:40:20.705Z,51.325745
2024-03-26T06:41:20.776Z,51.325752
2024-03-26T06:42:20.661Z,51.325741
2024-03-26T06:43:20.663Z,51.325756
2024-03-26T06:44:20.634Z,51.325748
2024-03-26T06:45:20.603Z,51.325752
2024-03-26T06:46:23.933Z,51.325760
2024-03-26T06:47:21.578Z,51.325741
2024-03-26T06:48:20.564Z,51.325741
2024-03-26T06:49:20.560Z,51.325741
2024-03-26T06:50:20.537Z,51.325741
2024-03-26T06:51:20.542Z,51.325748
2024-03-26T06:52:20.519Z,51.325760
2024-03-26T06:53:20.479Z,51.325775
2024-03-26T06:54:20.459Z,51.325768
2024-03-26T06:55:20.434Z,51.325760
2024-03-26T06:56:20.436Z,51.325764
2024-03-26T06:57:20.450Z,51.325768
2024-03-26T06:58:20.399Z,51.325768
2024-03-26T06:59:20.399Z,51.325745
2024-03-26T07:00:20.376Z,51.325737
2024-03-26T07:01:20.357Z,51.325787
2024-03-26T07:02:20.654Z,51.325733
2024-03-26T07:03:20.326Z,51.325752
2024-03-26T07:04:20.338Z,51.325748
2024-03-26T07:05:20.320Z,51.325756
2024-03-26T07:06:20.287Z,51.325768
2024-03-26T07:07:20.268Z,51.325741
2024-03-26T07:08:20.262Z,51.325752
2024-03-26T07:09:20.223Z,51.325737
2024-03-26T07:10:20.204Z,51.325729
2024-03-26T07:11:20.176Z,51.325729
2024-03-26T07:12:20.196Z,51.325741
2024-03-26T07:13:20.167Z,51.325729
2024-03-26T07:14:20.152Z,51.325741
2024-03-26T07:15:20.127Z,51.325745
2024-03-26T07:16:20.103Z,51.325745
2024-03-26T07:17:20.081Z,51.325760
2024-03-26T07:18:20.098Z,51.325779
2024-03-26T07:19:20.043Z,51.325748
2024-03-26T07:20:20.030Z,51.325748
2024-03-26T07:21:20.006Z,51.325741
2024-03-26T07:22:19.987Z,51.325745
2024-03-26T07:23:20.007Z,51.325745
2024-03-26T07:24:20.000Z,51.325760
2024-03-26T07:25:19.992Z,51.325764
2024-03-26T07:26:19.920Z,51.325779
2024-03-26T07:27:19.921Z,51.325745
2024-03-26T07:28:20.192Z,51.325748
2024-03-26T07:29:19.889Z,51.325737
2024-03-26T07:30:19.861Z,51.325748
2024-03-26T07:31:19.852Z,51.325768
2024-03-26T07:32:19.828Z,51.325752
2024-03-26T07:33:20.049Z,51.325756
2024-03-26T07:34:19.834Z,51.325771
2024-03-26T07:35:19.792Z,51.325771
2024-03-26T07:36:19.877Z,51.325745
2024-03-26T07:37:19.782Z,51.325756
2024-03-26T07:38:19.742Z,51.325756
2024-03-26T07:39:19.757Z,51.325752
2024-03-26T07:40:19.708Z,51.325752
2024-03-26T07:41:19.711Z,51.325745
2024-03-26T07:42:19.720Z,51.325729
2024-03-26T07:43:23.883Z,51.325733
2024-03-26T07:44:20.741Z,51.325733
2024-03-26T07:45:19.642Z,51.325729
2024-03-26T07:46:19.623Z,51.325748
2024-03-26T07:47:19.686Z,51.325752
2024-03-26T07:48:21.645Z,51.325745
2024-03-26T07:49:19.577Z,51.325741
2024-03-26T07:50:19.665Z,51.325733
2024-03-26T07:51:20.377Z,51.325726
2024-03-26T07:52:20.564Z,51.325756
2024-03-26T07:53:19.517Z,51.325756
2024-03-26T07:54:19.507Z,51.325748
2024-03-26T07:55:19.482Z,51.325733
2024-03-26T07:56:19.452Z,51.325745
2024-03-26T07:57:19.444Z,51.325779
2024-03-26T07:58:19.438Z,51.325790
2024-03-26T07:59:19.472Z,51.325787
2024-03-26T08:00:19.576Z,51.325802
2024-03-26T08:01:19.457Z,51.325802
2024-03-26T08:02:19.473Z,51.325764
2024-03-26T08:03:19.358Z,51.325752
2024-03-26T08:04:19.339Z,51.325737
2024-03-26T08:05:19.326Z,51.325783
2024-03-26T08:06:19.354Z,51.325775
2024-03-26T08:07:19.318Z,51.325748
2024-03-26T08:08:19.273Z,51.325813
2024-03-26T08:09:19.314Z,51.325836
2024-03-26T08:10:19.303Z,51.325832
2024-03-26T08:11:19.230Z,51.325794
2024-03-26T08:12:19.194Z,51.325836
2024-03-26T08:13:19.194Z,51.325802
2024-03-26T08:14:19.174Z,51.325783
2024-03-26T08:15:19.203Z,51.325771
2024-03-26T08:16:19.117Z,51.325764
2024-03-26T08:17:19.204Z,51.325775
2024-03-26T08:18:19.136Z,51.325748
2024-03-26T08:19:19.134Z,51.325756
2024-03-26T08:20:19.089Z,51.325752
2024-03-26T08:21:19.035Z,51.325737
2024-03-26T08:22:19.133Z,51.325748
2024-03-26T08:23:20.005Z,51.325760
2024-03-26T08:24:18.988Z,51.325745
2024-03-26T08:25:19.044Z,51.325726
2024-03-26T08:26:18.967Z,51.325726
2024-03-26T08:27:18.947Z,51.325718
2024-03-26T08:28:19.015Z,51.325756
2024-03-26T08:29:18.899Z,51.325768
2024-03-26T08:30:18.914Z,51.325760
2024-03-26T08:31:18.891Z,51.325714
2024-03-26T08:32:18.963Z,51.325733
2024-03-26T08:33:18.914Z,51.325745
2024-03-26T08:34:18.847Z,51.325718
2024-03-26T08:35:20.535Z,51.325718
2024-03-26T08:36:19.867Z,51.325733
2024-03-26T08:37:18.792Z,51.325733
2024-03-26T08:38:18.750Z,51.325745
2024-03-26T08:39:18.755Z,51.325760
2024-03-26T08:40:18.991Z,51.325748
2024-03-26T08:41:18.773Z,51.325741
2024-03-26T08:42:18.701Z,51.325733
2024-03-26T08:43:18.677Z,51.325741
2024-03-26T08:44:18.671Z,51.325783
2024-03-26T08:45:18.666Z,51.325745
2024-03-26T08:46:18.640Z,51.325745
2024-03-26T08:47:18.648Z,51.325748
2024-03-26T08:48:18.599Z,51.325764
2024-03-26T08:49:18.564Z,51.325752
2024-03-26T08:50:18.559Z,51.325737
2024-03-26T08:51:18.589Z,51.325756
2024-03-26T08:52:18.518Z,51.325752
2024-03-26T08:53:18.527Z,51.325706
2024-03-26T08:54:18.522Z,51.325718
2024-03-26T08:55:18.502Z,51.325748
2024-03-26T08:56:25.054Z,51.325764
2024-03-26T08:57:20.590Z,51.325745
2024-03-26T08:58:22.597Z,51.325745
2024-03-26T08:59:20.415Z,51.325756
2024-03-26T09:00:18.390Z,51.325764
2024-03-26T09:01:18.404Z,51.325718
2024-03-26T09:02:18.377Z,51.325748
2024-03-26T09:03:18.334Z,51.325752
2024-03-26T09:04:18.463Z,51.325745
2024-03-26T09:05:18.313Z,51.325760
2024-03-26T09:06:18.318Z,51.325790
2024-03-26T09:07:18.310Z,51.325771
2024-03-26T09:08:18.266Z,51.325710
2024-03-26T09:09:18.236Z,51.325718
2024-03-26T09:10:18.227Z,51.325703
2024-03-26T09:11:18.404Z,51.325745
2024-03-26T09:12:18.220Z,51.325752
2024-03-26T09:13:18.203Z,51.325756
2024-03-26T09:14:18.206Z,51.325787
2024-03-26T09:15:18.142Z,51.325760
2024-03-26T09:16:18.146Z,51.325733
2024-03-26T09:17:18.160Z,51.325726
2024-03-26T09:18:18.101Z,51.325756
2024-03-26T09:19:18.172Z,51.325726
2024-03-26T09:20:18.083Z,51.325706
2024-03-26T09:21:18.125Z,51.325764
2024-03-26T09:22:18.038Z,51.325798
2024-03-26T09:23:18.072Z,51.325775
2024-03-26T09:24:18.004Z,51.325710
2024-03-26T09:25:18.004Z,51.325718
2024-03-26T09:26:17.955Z,51.325710
2024-03-26T09:27:18.952Z,51.325737
2024-03-26T09:28:17.940Z,51.325722
2024-03-26T09:29:17.929Z,51.325756
2024-03-26T09:30:17.914Z,51.325741
2024-03-26T09:31:17.893Z,51.325764
2024-03-26T09:32:17.889Z,51.325783
2024-03-26T09:33:18.191Z,51.325745
2024-03-26T09:34:17.869Z,51.325756
2024-03-26T09:35:17.818Z,51.325722
2024-03-26T09:36:17.794Z,51.325756
2024-03-26T09:37:17.773Z,51.325722
2024-03-26T09:38:18.691Z,51.325729
2024-03-26T09:39:17.742Z,51.325745
2024-03-26T09:40:17.738Z,51.325726
2024-03-26T09:41:17.727Z,51.325706
2024-03-26T09:42:17.695Z,51.325737
2024-03-26T09:43:19.880Z,51.325703
2024-03-26T09:44:19.143Z,51.325718
2024-03-26T09:45:17.688Z,51.325710
2024-03-26T09:46:17.629Z,51.325710
2024-03-26T09:47:17.613Z,51.325729
2024-03-26T09:48:17.649Z,51.325768
2024-03-26T09:49:17.601Z,51.325764
2024-03-26T09:50:17.596Z,51.325699
2024-03-26T09:51:17.562Z,51.325623
2024-03-26T09:52:17.537Z,51.325672
2024-03-26T09:53:17.530Z,51.325665
2024-03-26T09:54:17.511Z,51.325645
2024-03-26T09:55:17.668Z,51.325718
2024-03-26T09:56:17.446Z,51.325771
2024-03-26T09:57:18.448Z,51.325703
2024-03-26T09:58:17.412Z,51.325684
2024-03-26T09:59:17.443Z,51.325726
2024-03-26T10:00:17.534Z,51.325706
2024-03-26T10:01:17.375Z,51.325684
2024-03-26T10:02:17.359Z,51.325691
2024-03-26T10:03:17.353Z,51.325657
2024-03-26T10:04:17.383Z,51.325680
2024-03-26T10:05:17.581Z,51.325630
2024-03-26T10:06:17.299Z,51.325626
2024-03-26T10:07:17.272Z,51.325653
2024-03-26T10:08:17.247Z,51.325691
2024-03-26T10:09:17.239Z,51.325726
2024-03-26T10:10:17.310Z,51.325695
2024-03-26T10:11:17.218Z,51.325657
2024-03-26T10:12:17.306Z,51.325672
2024-03-26T10:13:17.175Z,51.325649
2024-03-26T10:14:17.206Z,51.325672
2024-03-26T10:15:17.161Z,51.325687
2024-03-26T10:16:17.181Z,51.325687
2024-03-26T10:17:17.102Z,51.325684
2024-03-26T10:18:17.103Z,51.325653
2024-03-26T10:19:17.078Z,51.325653
2024-03-26T10:20:17.073Z,51.325672
2024-03-26T10:21:17.063Z,51.325661
2024-03-26T10:22:17.080Z,51.325634
2024-03-26T10:23:17.011Z,51.325634
2024-03-26T10:24:16.988Z,51.325603
2024-03-26T10:25:17.015Z,51.325581
2024-03-26T10:26:17.059Z,51.325638
2024-03-26T10:27:16.983Z,51.325684
2024-03-26T10:28:16.991Z,51.325695
2024-03-26T10:29:16.895Z,51.325691
2024-03-26T10:30:16.896Z,51.325703
2024-03-26T10:31:16.867Z,51.325684
2024-03-26T10:32:16.944Z,51.325699
2024-03-26T10:33:16.842Z,51.325718
2024-03-26T10:34:16.843Z,51.325737
2024-03-26T10:35:16.826Z,51.325626
2024-03-26T10:36:16.850Z,51.325619
2024-03-26T10:37:16.849Z,51.325638
2024-03-26T10:38:17.435Z,51.325626
2024-03-26T10:39:16.742Z,51.325653
2024-03-26T10:40:16.718Z,51.325672
2024-03-26T10:41:16.719Z,51.325710
2024-03-26T10:42:16.735Z,51.325703
2024-03-26T10:43:16.673Z,51.325722
2024-03-26T10:44:16.648Z,51.325737
2024-03-26T10:45:27.598Z,51.325687
2024-03-26T10:46:18.617Z,51.325676
2024-03-26T10:47:16.644Z,51.325699
2024-03-26T10:48:16.600Z,51.325687
2024-03-26T10:49:16.588Z,51.325687
2024-03-26T10:50:16.591Z,51.325706
2024-03-26T10:51:16.522Z,51.325703
2024-03-26T10:52:16.522Z,51.325703
2024-03-26T10:53:19.027Z,51.325729
2024-03-26T10:54:16.489Z,51.325733
2024-03-26T10:55:16.463Z,51.325706
2024-03-26T10:56:16.451Z,51.325741
2024-03-26T10:57:16.438Z,51.325745
2024-03-26T10:58:16.431Z,51.325733
2024-03-26T10:59:16.426Z,51.325714
2024-03-26T11:00:16.407Z,51.325703
2024-03-26T11:01:16.390Z,51.325695
2024-03-26T11:02:16.363Z,51.325680
2024-03-26T11:03:16.353Z,51.325726
2024-03-26T11:04:16.344Z,51.325733
2024-03-26T11:05:16.305Z,51.325706
2024-03-26T11:06:16.317Z,51.325699
2024-03-26T11:07:16.280Z,51.325710
2024-03-26T11:08:16.324Z,51.325737
2024-03-26T11:09:16.886Z,51.325745
2024-03-26T11:10:16.216Z,51.325737
2024-03-26T11:11:16.240Z,51.325733
2024-03-26T11:12:16.186Z,51.325718
2024-03-26T11:13:16.170Z,51.325726
2024-03-26T11:14:16.170Z,51.325729
2024-03-26T11:15:16.155Z,51.325726
2024-03-26T11:16:16.133Z,51.325745
2024-03-26T11:17:16.122Z,51.325729
2024-03-26T11:18:16.097Z,51.325714
2024-03-26T11:19:16.178Z,51.325729
2024-03-26T11:20:16.067Z,51.325745
2024-03-26T11:21:16.043Z,51.325729
2024-03-26T11:22:16.047Z,51.325722
2024-03-26T11:23:16.008Z,51.325714
2024-03-26T11:24:16.084Z,51.325726